Time;durP1;ratioP1;P1;durP2;ratioP2;P2;SDS_P1;SDS_P2;PMS_P1;PMS_P2;Temp;Humidity;BMP_temperature;BMP_pressure;BME280_temperature;BME280_humidity;BME280_pressure;Samples;Min_cycle;Max_cycle;Signal;HPM_P1;HPM_P2
2021/06/22 00:00:18;;;;;;;10.63;9.83;;;26.30;95.20;;;;;;3544315;40;20539;-65
2021/06/22 00:02:47;;;;;;;10.17;9.67;;;26.30;95.20;;;;;;3544599;40;20581;-65
2021/06/22 00:05:17;;;;;;;10.37;9.93;;;26.30;95.10;;;;;;3544923;40;20483;-65
2021/06/22 00:07:52;;;;;;;11.00;10.20;;;26.30;95.20;;;;;;3545535;40;20484;-65
2021/06/22 00:10:22;;;;;;;11.53;10.80;;;26.30;95.20;;;;;;3544452;40;20829;-65
2021/06/22 00:12:52;;;;;;;10.27;9.70;;;26.30;95.20;;;;;;3544268;40;20512;-65
2021/06/22 00:15:23;;;;;;;10.50;10.00;;;26.30;95.20;;;;;;3544706;40;20507;-65
2021/06/22 00:17:52;;;;;;;10.40;9.90;;;26.30;95.10;;;;;;3544647;40;20489;-65
2021/06/22 00:20:21;;;;;;;10.00;9.50;;;26.30;95.10;;;;;;3544698;40;20478;-65
2021/06/22 00:22:50;;;;;;;9.90;9.33;;;26.30;95.10;;;;;;3544474;40;20528;-65
2021/06/22 00:25:19;;;;;;;11.03;10.53;;;26.30;95.20;;;;;;3544000;40;20540;-66
2021/06/22 00:27:46;;;;;;;10.40;10.00;;;26.30;95.20;;;;;;3544503;40;20504;-65
2021/06/22 00:30:17;;;;;;;10.70;10.10;;;26.20;95.20;;;;;;3543330;40;20528;-65
2021/06/22 00:32:45;;;;;;;11.63;11.00;;;26.20;95.20;;;;;;3542692;40;20816;-65
2021/06/22 00:35:16;;;;;;;10.60;10.10;;;26.20;95.20;;;;;;3542647;40;20494;-65
2021/06/22 00:37:44;;;;;;;10.30;9.70;;;26.20;95.20;;;;;;3543934;40;20497;-65
2021/06/22 00:40:15;;;;;;;11.00;10.47;;;26.20;95.30;;;;;;3542359;40;20580;-65
2021/06/22 00:42:43;;;;;;;10.87;10.33;;;26.20;95.40;;;;;;3544095;40;20832;-65
2021/06/22 00:45:14;;;;;;;11.27;10.67;;;26.20;95.40;;;;;;3543983;40;20572;-65
2021/06/22 00:47:46;;;;;;;11.07;10.27;;;26.20;95.70;;;;;;3543548;40;20484;-65
2021/06/22 00:50:15;;;;;;;10.17;9.77;;;26.20;95.40;;;;;;3541351;40;20580;-65
2021/06/22 00:52:54;;;;;;;11.83;11.23;;;26.20;95.30;;;;;;3544038;40;20625;-65
2021/06/22 00:55:32;;;;;;;10.70;10.10;;;26.20;95.30;;;;;;3535063;40;20486;-65
2021/06/22 00:58:03;;;;;;;10.63;10.20;;;26.20;95.30;;;;;;3543809;40;20953;-65
2021/06/22 01:00:34;;;;;;;10.90;10.50;;;26.20;95.30;;;;;;3544899;40;20488;-66
2021/06/22 01:03:05;;;;;;;12.20;11.60;;;26.20;95.30;;;;;;3535266;40;20484;-65
2021/06/22 01:05:47;;;;;;;11.50;10.80;;;26.20;95.30;;;;;;3543561;40;20539;-65
2021/06/22 01:08:17;;;;;;;10.37;9.87;;;26.20;95.30;;;;;;3534566;40;20502;-65
2021/06/22 01:10:46;;;;;;;11.17;10.57;;;26.20;95.30;;;;;;3543739;40;20483;-65
2021/06/22 01:13:14;;;;;;;11.13;10.63;;;26.20;95.30;;;;;;3543742;40;20500;-65
2021/06/22 01:15:44;;;;;;;10.90;10.40;;;26.20;95.30;;;;;;3534898;40;20497;-65
2021/06/22 01:18:13;;;;;;;11.90;11.20;;;26.20;95.30;;;;;;3543015;40;20753;-65
2021/06/22 01:21:05;;;;;;;10.50;10.10;;;26.20;95.30;;;;;;3535152;40;20466;-65
2021/06/22 01:23:41;;;;;;;11.03;10.63;;;26.20;95.30;;;;;;3543844;40;20490;-65
2021/06/22 01:26:11;;;;;;;11.90;11.40;;;26.20;95.30;;;;;;3534503;40;20488;-65
2021/06/22 01:28:41;;;;;;;11.43;10.93;;;26.20;95.30;;;;;;3534991;40;20481;-65
2021/06/22 01:31:16;;;;;;;10.83;10.33;;;26.20;95.30;;;;;;3543400;40;20596;-66
2021/06/22 01:33:47;;;;;;;11.83;11.23;;;26.20;95.30;;;;;;3542131;40;21198;-65
2021/06/22 01:36:19;;;;;;;11.67;11.10;;;26.20;95.30;;;;;;3534306;40;20490;-65
2021/06/22 01:38:47;;;;;;;12.10;11.50;;;26.20;95.30;;;;;;3544404;40;20511;-65
2021/06/22 01:41:19;;;;;;;11.60;11.00;;;26.10;95.30;;;;;;3543455;40;20541;-65
2021/06/22 01:43:48;;;;;;;11.73;11.13;;;26.20;95.40;;;;;;3534204;40;20481;-65
2021/06/22 01:46:17;;;;;;;11.93;11.23;;;26.10;95.40;;;;;;3534278;40;20486;-65
2021/06/22 01:48:46;;;;;;;10.80;10.30;;;26.10;95.40;;;;;;3542906;40;20520;-66
2021/06/22 01:51:14;;;;;;;10.97;10.37;;;26.10;95.40;;;;;;3533965;40;21137;-65
2021/06/22 01:53:50;;;;;;;10.70;10.20;;;26.10;95.40;;;;;;3535099;40;20918;-65
2021/06/22 01:56:18;;;;;;;11.23;10.40;;;26.10;95.50;;;;;;3534325;40;20502;-65
2021/06/22 01:58:52;;;;;;;11.73;11.07;;;26.10;95.50;;;;;;3540254;40;20660;-65
2021/06/22 02:01:49;;;;;;;11.20;10.70;;;26.10;95.40;;;;;;3542907;40;20482;-65
2021/06/22 02:04:30;;;;;;;11.30;10.50;;;26.10;95.40;;;;;;3543051;40;20521;-65
2021/06/22 02:07:05;;;;;;;11.70;11.00;;;26.10;95.40;;;;;;3543845;40;20556;-65
2021/06/22 02:09:37;;;;;;;11.67;11.03;;;26.10;95.40;;;;;;3542499;40;20486;-65
2021/06/22 02:12:08;;;;;;;11.70;11.10;;;26.10;95.40;;;;;;3542978;40;20583;-65
2021/06/22 02:14:38;;;;;;;12.27;11.27;;;26.00;95.30;;;;;;3543190;40;21101;-65
2021/06/22 02:17:06;;;;;;;12.73;12.03;;;26.00;95.30;;;;;;3543016;40;20489;-65
2021/06/22 02:19:34;;;;;;;12.40;11.20;;;26.00;95.30;;;;;;3543693;40;20522;-65
2021/06/22 02:22:08;;;;;;;12.17;11.57;;;26.00;95.30;;;;;;3533890;40;20527;-65
2021/06/22 02:24:52;;;;;;;12.37;11.57;;;26.10;95.30;;;;;;3541457;40;20502;-65
2021/06/22 02:27:24;;;;;;;12.60;12.00;;;26.10;95.30;;;;;;3543065;40;20493;-65
2021/06/22 02:29:55;;;;;;;13.20;12.30;;;26.00;95.20;;;;;;3534920;40;20575;-65
2021/06/22 02:32:24;;;;;;;12.10;11.30;;;26.00;95.20;;;;;;3543648;40;20470;-65
2021/06/22 02:35:02;;;;;;;13.03;12.10;;;26.00;95.20;;;;;;3543160;40;20649;-65
2021/06/22 02:37:33;;;;;;;12.67;12.07;;;26.00;95.30;;;;;;3543642;40;20486;-65
2021/06/22 02:40:03;;;;;;;12.33;11.63;;;26.00;95.30;;;;;;3543164;40;20707;-65
2021/06/22 02:42:33;;;;;;;12.90;12.30;;;26.00;95.30;;;;;;3533730;40;20489;-65
2021/06/22 02:45:08;;;;;;;12.63;11.83;;;26.00;95.30;;;;;;3534390;40;20489;-65
2021/06/22 02:47:37;;;;;;;12.90;12.03;;;26.00;95.30;;;;;;3534831;40;20493;-65
2021/06/22 02:50:06;;;;;;;13.37;12.47;;;26.00;95.30;;;;;;3542256;40;20509;-65
2021/06/22 02:52:36;;;;;;;13.80;12.90;;;26.00;95.30;;;;;;3534874;40;20517;-65
2021/06/22 02:55:07;;;;;;;13.50;12.80;;;25.90;95.30;;;;;;3543325;40;20475;-65
2021/06/22 02:57:53;;;;;;;12.83;12.00;;;25.90;95.30;;;;;;3534384;40;20497;-65
2021/06/22 03:00:24;;;;;;;12.53;11.87;;;25.90;95.20;;;;;;3534287;40;20476;-65
2021/06/22 03:02:52;;;;;;;13.37;12.53;;;26.00;95.30;;;;;;3544017;40;20782;-65
2021/06/22 03:05:23;;;;;;;14.07;13.27;;;26.00;95.30;;;;;;3544020;40;20576;-65
2021/06/22 03:07:51;;;;;;;13.77;12.70;;;26.00;95.30;;;;;;3534276;40;20780;-65
2021/06/22 03:10:23;;;;;;;14.57;13.67;;;26.00;95.20;;;;;;3543910;40;21086;-65
2021/06/22 03:12:52;;;;;;;14.43;13.63;;;26.00;95.20;;;;;;3543796;40;20535;-65
2021/06/22 03:15:27;;;;;;;13.97;13.27;;;26.00;95.20;;;;;;3543287;40;20466;-66
2021/06/22 03:17:56;;;;;;;13.50;12.70;;;25.90;95.20;;;;;;3541689;40;20489;-65
2021/06/22 03:20:32;;;;;;;15.13;14.20;;;25.90;95.20;;;;;;3543395;40;20489;-65
2021/06/22 03:23:03;;;;;;;15.90;15.00;;;25.90;95.30;;;;;;3533073;40;20485;-65
2021/06/22 03:25:36;;;;;;;16.17;15.37;;;25.90;95.30;;;;;;3543696;40;20486;-65
2021/06/22 03:28:05;;;;;;;15.27;14.50;;;25.90;95.20;;;;;;3542747;40;20494;-65
2021/06/22 03:30:37;;;;;;;15.47;14.57;;;25.80;95.20;;;;;;3542480;40;20552;-65
2021/06/22 03:33:05;;;;;;;15.73;14.60;;;25.80;95.20;;;;;;3542966;40;20534;-65
2021/06/22 03:35:34;;;;;;;14.20;13.40;;;25.90;95.30;;;;;;3542588;40;20496;-65
2021/06/22 03:38:03;;;;;;;15.07;14.17;;;25.80;95.20;;;;;;3543373;40;20853;-65
2021/06/22 03:40:32;;;;;;;14.47;13.67;;;25.90;95.30;;;;;;3542525;40;20483;-65
2021/06/22 03:43:04;;;;;;;13.93;13.23;;;25.90;95.30;;;;;;3533917;40;20493;-65
2021/06/22 03:45:36;;;;;;;15.00;14.10;;;25.90;95.20;;;;;;3534095;40;20492;-65
2021/06/22 03:48:10;;;;;;;15.97;14.77;;;25.90;95.20;;;;;;3542563;40;21145;-65
2021/06/22 03:50:40;;;;;;;15.67;14.67;;;25.90;95.20;;;;;;3541775;40;20505;-65
2021/06/22 03:53:09;;;;;;;16.13;14.87;;;25.90;95.20;;;;;;3532217;40;20485;-65
2021/06/22 03:55:38;;;;;;;15.70;14.90;;;25.90;95.20;;;;;;3532769;40;20489;-65
2021/06/22 03:58:12;;;;;;;15.70;14.80;;;25.90;95.20;;;;;;3540506;40;20486;-65
2021/06/22 04:00:43;;;;;;;14.80;14.00;;;25.90;95.20;;;;;;3540114;40;20486;-65
2021/06/22 04:03:13;;;;;;;14.83;14.00;;;25.90;95.20;;;;;;3540192;40;20515;-65
2021/06/22 04:05:49;;;;;;;15.30;14.60;;;25.90;95.20;;;;;;3531706;40;20492;-65
2021/06/22 04:08:38;;;;;;;15.20;14.50;;;25.90;95.20;;;;;;3539945;40;20564;-65
2021/06/22 04:11:13;;;;;;;15.33;14.43;;;25.90;95.10;;;;;;3540465;40;21105;-65
2021/06/22 04:13:43;;;;;;;15.23;14.43;;;25.90;95.50;;;;;;3533166;40;20502;-65
2021/06/22 04:16:12;;;;;;;14.23;13.50;;;25.90;95.10;;;;;;3542506;40;20583;-65
2021/06/22 04:18:41;;;;;;;15.00;14.30;;;25.90;95.10;;;;;;3533170;40;20580;-65
2021/06/22 04:21:15;;;;;;;14.60;13.90;;;25.90;95.10;;;;;;3541320;40;20494;-65
2021/06/22 04:23:47;;;;;;;15.30;14.50;;;25.90;95.00;;;;;;3532849;40;20487;-66
2021/06/22 04:26:17;;;;;;;15.10;14.03;;;25.90;95.00;;;;;;3542351;40;20536;-65
2021/06/22 04:28:47;;;;;;;15.20;14.40;;;25.90;95.10;;;;;;3541060;40;20496;-65
2021/06/22 04:31:15;;;;;;;15.70;15.00;;;25.90;95.10;;;;;;3541076;40;20564;-65
2021/06/22 04:33:43;;;;;;;15.43;14.37;;;25.90;95.10;;;;;;3542824;40;20482;-65
2021/06/22 04:36:13;;;;;;;14.93;13.97;;;25.90;95.10;;;;;;3541402;40;20568;-65
2021/06/22 04:38:43;;;;;;;14.60;13.70;;;25.90;95.10;;;;;;3540044;40;20576;-65
2021/06/22 04:41:11;;;;;;;15.77;14.17;;;25.80;95.10;;;;;;3541341;40;20486;-65
2021/06/22 04:43:38;;;;;;;15.03;14.17;;;25.90;95.10;;;;;;3539857;40;20497;-65
2021/06/22 04:46:09;;;;;;;15.07;14.27;;;25.90;95.10;;;;;;3539640;40;20482;-65
2021/06/22 04:48:39;;;;;;;14.63;14.03;;;25.90;95.00;;;;;;3539145;40;20544;-65
2021/06/22 04:51:08;;;;;;;14.97;14.13;;;25.80;94.90;;;;;;3539881;40;20505;-65
2021/06/22 04:53:37;;;;;;;15.57;14.60;;;25.80;95.00;;;;;;3538293;40;20560;-65
2021/06/22 04:56:06;;;;;;;14.40;13.70;;;25.90;95.30;;;;;;3539558;40;20806;-65
2021/06/22 04:58:35;;;;;;;15.30;14.60;;;25.90;95.00;;;;;;3536250;40;20474;-65
2021/06/22 05:01:05;;;;;;;14.60;13.87;;;25.90;94.90;;;;;;3535699;40;20537;-65
2021/06/22 05:03:35;;;;;;;15.03;14.27;;;25.90;94.90;;;;;;3533675;40;21092;-65
2021/06/22 05:06:02;;;;;;;15.47;14.67;;;26.00;94.90;;;;;;3523440;40;20601;-66
2021/06/22 05:08:30;;;;;;;15.37;14.20;;;25.90;94.70;;;;;;3535621;40;20490;-65
2021/06/22 05:10:59;;;;;;;14.90;14.10;;;26.00;94.70;;;;;;3535052;40;20507;-65
2021/06/22 05:13:27;;;;;;;14.70;13.57;;;26.00;94.70;;;;;;3523869;40;20498;-65
2021/06/22 05:15:55;;;;;;;14.53;13.43;;;26.00;94.70;;;;;;3535677;40;20555;-65
2021/06/22 05:18:23;;;;;;;14.57;13.87;;;26.00;94.80;;;;;;3537467;40;20493;-65
2021/06/22 05:20:53;;;;;;;14.13;13.53;;;26.00;94.80;;;;;;3533549;40;20766;-65
2021/06/22 05:23:21;;;;;;;15.00;14.20;;;26.00;94.80;;;;;;3534101;40;20506;-65
2021/06/22 05:25:49;;;;;;;14.63;13.93;;;26.10;94.80;;;;;;3533337;40;20568;-65
2021/06/22 05:28:18;;;;;;;15.13;14.43;;;26.10;94.80;;;;;;3534813;40;20489;-65
2021/06/22 05:30:45;;;;;;;13.30;12.40;;;26.00;94.80;;;;;;3537777;40;20504;-65
2021/06/22 05:33:13;;;;;;;13.83;13.17;;;26.10;94.90;;;;;;3523857;40;20835;-65
2021/06/22 05:35:41;;;;;;;13.10;12.30;;;26.10;94.90;;;;;;3532340;40;20872;-66
2021/06/22 05:38:11;;;;;;;13.13;12.57;;;26.10;94.90;;;;;;3533348;40;20493;-65
2021/06/22 05:40:40;;;;;;;15.50;12.87;;;26.10;94.90;;;;;;3531049;40;20562;-65
2021/06/22 05:43:07;;;;;;;14.57;13.90;;;26.10;94.90;;;;;;3532948;40;20668;-65
2021/06/22 05:45:36;;;;;;;14.30;13.60;;;26.10;94.90;;;;;;3530589;40;20494;-65
2021/06/22 05:48:04;;;;;;;13.83;12.90;;;26.10;94.90;;;;;;3529799;40;20519;-65
2021/06/22 05:50:33;;;;;;;13.10;12.30;;;26.10;94.90;;;;;;3531574;40;20942;-65
2021/06/22 05:53:01;;;;;;;12.17;11.67;;;26.10;94.90;;;;;;3530066;40;20496;-65
2021/06/22 05:55:31;;;;;;;11.80;11.23;;;26.10;94.90;;;;;;3529586;40;20632;-65
2021/06/22 05:58:00;;;;;;;12.10;11.30;;;26.10;94.80;;;;;;3513652;40;21287;-65
2021/06/22 06:00:30;;;;;;;13.30;12.50;;;26.10;94.80;;;;;;3513529;40;20739;-65
2021/06/22 06:02:57;;;;;;;13.97;12.70;;;26.10;95.00;;;;;;3515504;40;20568;-65
2021/06/22 06:05:25;;;;;;;12.27;11.23;;;26.10;94.90;;;;;;3522858;40;20530;-65
2021/06/22 06:07:54;;;;;;;11.77;11.07;;;26.20;95.00;;;;;;3518612;40;20501;-65
2021/06/22 06:10:22;;;;;;;11.67;11.07;;;26.10;95.00;;;;;;3516553;40;20850;-65
2021/06/22 06:12:51;;;;;;;11.33;10.63;;;26.20;95.00;;;;;;3511930;40;20493;-65
2021/06/22 06:15:19;;;;;;;11.77;10.80;;;26.20;95.00;;;;;;3516921;40;20611;-67
2021/06/22 06:17:46;;;;;;;11.47;10.87;;;26.00;94.90;;;;;;3515608;40;20717;-67
2021/06/22 06:20:15;;;;;;;10.80;10.20;;;25.80;95.30;;;;;;3518050;40;20801;-66
2021/06/22 06:22:46;;;;;;;11.30;10.80;;;25.50;95.50;;;;;;3509110;40;21149;-67
2021/06/22 06:25:14;;;;;;;11.17;10.67;;;25.30;95.90;;;;;;3511154;40;20935;-66
2021/06/22 06:27:48;;;;;;;10.80;10.30;;;25.20;96.30;;;;;;3522303;40;20710;-66
2021/06/22 06:30:21;;;;;;;10.20;9.80;;;25.20;96.70;;;;;;3524125;40;20482;-67
2021/06/22 06:32:51;;;;;;;10.70;10.30;;;25.10;97.20;;;;;;3523880;40;20489;-67
2021/06/22 06:35:19;;;;;;;9.70;9.30;;;25.10;97.60;;;;;;3523507;40;20512;-68
2021/06/22 06:37:47;;;;;;;11.23;10.70;;;25.10;97.90;;;;;;3516366;40;20665;-68
2021/06/22 06:40:16;;;;;;;11.00;10.60;;;25.10;97.80;;;;;;3521632;40;20734;-68
2021/06/22 06:42:44;;;;;;;12.00;11.40;;;25.10;97.70;;;;;;3523480;40;20489;-68
2021/06/22 06:45:13;;;;;;;11.63;11.13;;;25.00;97.20;;;;;;3514281;40;20488;-68
2021/06/22 06:47:41;;;;;;;11.87;11.40;;;25.00;97.10;;;;;;3519977;40;20742;-68
2021/06/22 06:50:11;;;;;;;12.00;11.53;;;25.00;97.00;;;;;;3520816;40;20506;-67
2021/06/22 06:52:39;;;;;;;12.40;11.63;;;24.90;97.10;;;;;;3522860;40;20497;-67
2021/06/22 06:55:24;;;;;;;12.30;11.80;;;25.00;97.10;;;;;;3524617;40;20574;-67
2021/06/22 06:57:54;;;;;;;12.83;11.90;;;25.00;97.30;;;;;;3519982;40;20763;-67
2021/06/22 07:00:22;;;;;;;12.57;11.97;;;25.00;97.10;;;;;;3520822;40;20564;-67
2021/06/22 07:02:52;;;;;;;12.30;11.90;;;25.00;97.20;;;;;;3520402;40;20599;-67
2021/06/22 07:05:19;;;;;;;12.03;11.43;;;25.00;97.40;;;;;;3525227;40;20511;-68
2021/06/22 07:07:48;;;;;;;12.77;12.00;;;25.00;97.60;;;;;;3524870;40;20482;-67
2021/06/22 07:10:16;;;;;;;12.60;12.10;;;24.90;97.80;;;;;;3520438;40;20486;-68
2021/06/22 07:12:46;;;;;;;12.80;12.10;;;24.80;98.10;;;;;;3519880;40;20492;-67
2021/06/22 07:15:15;;;;;;;12.30;11.70;;;24.80;98.50;;;;;;3520340;40;20569;-67
2021/06/22 07:17:43;;;;;;;12.77;12.07;;;24.80;99.20;;;;;;3519936;40;20489;-67
2021/06/22 07:20:15;;;;;;;12.23;11.73;;;24.80;99.40;;;;;;3508837;40;20490;-68
2021/06/22 07:22:43;;;;;;;12.23;11.70;;;24.80;99.90;;;;;;3519591;40;21060;-67
2021/06/22 07:25:12;;;;;;;12.17;11.70;;;24.90;99.90;;;;;;3512661;40;20526;-68
2021/06/22 07:27:40;;;;;;;13.80;12.90;;;24.90;99.90;;;;;;3502743;40;20518;-68
2021/06/22 07:30:10;;;;;;;13.23;12.70;;;24.80;99.90;;;;;;3521491;40;20501;-67
2021/06/22 07:32:38;;;;;;;12.17;11.67;;;24.90;99.90;;;;;;3519733;40;20485;-67
2021/06/22 07:35:06;;;;;;;12.10;11.30;;;25.00;99.90;;;;;;3523408;40;20505;-67
2021/06/22 07:37:35;;;;;;;11.67;11.20;;;25.10;99.90;;;;;;3523457;40;20488;-67
2021/06/22 07:40:04;;;;;;;12.43;11.73;;;25.20;99.20;;;;;;3521866;40;20494;-67
2021/06/22 07:42:32;;;;;;;11.30;10.80;;;25.20;99.10;;;;;;3516475;40;21765;-67
2021/06/22 07:45:00;;;;;;;11.20;10.73;;;25.30;98.80;;;;;;3515089;40;20482;-67
2021/06/22 07:47:28;;;;;;;11.67;11.17;;;25.30;99.20;;;;;;3520265;40;20483;-67
2021/06/22 07:49:55;;;;;;;12.10;11.47;;;25.30;99.00;;;;;;3520377;40;20497;-67
2021/06/22 07:52:22;;;;;;;11.77;11.27;;;25.40;98.90;;;;;;3508836;40;20594;-67
2021/06/22 07:54:51;;;;;;;11.23;10.83;;;25.40;99.10;;;;;;3528856;40;20735;-67
2021/06/22 07:57:18;;;;;;;12.40;11.80;;;25.50;99.00;;;;;;3529826;40;20809;-67
2021/06/22 07:59:45;;;;;;;12.17;11.37;;;25.50;98.70;;;;;;3525857;40;20622;-67
2021/06/22 08:02:13;;;;;;;12.40;11.90;;;25.60;98.40;;;;;;3511527;40;20709;-67
2021/06/22 08:04:40;;;;;;;12.23;11.57;;;25.70;98.20;;;;;;3510623;40;20598;-67
2021/06/22 08:07:09;;;;;;;13.20;12.40;;;25.70;98.10;;;;;;3514640;40;20501;-67
2021/06/22 08:09:36;;;;;;;12.07;11.47;;;25.80;98.00;;;;;;3500689;40;20496;-67
2021/06/22 08:12:05;;;;;;;12.00;11.50;;;25.80;97.90;;;;;;3509174;40;20508;-67
2021/06/22 08:14:32;;;;;;;12.50;11.80;;;25.80;97.80;;;;;;3515131;40;20523;-67
2021/06/22 08:17:00;;;;;;;11.60;11.00;;;25.80;97.60;;;;;;3510780;40;20500;-66
2021/06/22 08:19:27;;;;;;;11.90;11.40;;;25.80;97.50;;;;;;3503577;40;20728;-65
2021/06/22 08:21:54;;;;;;;11.90;11.30;;;25.90;97.50;;;;;;3486955;40;20518;-65
2021/06/22 08:24:22;;;;;;;11.60;11.10;;;25.90;97.40;;;;;;3494135;40;20933;-64
2021/06/22 08:26:49;;;;;;;12.47;11.57;;;25.90;97.30;;;;;;3504922;40;20593;-64
2021/06/22 08:29:17;;;;;;;12.57;11.87;;;25.90;97.30;;;;;;3492628;40;20776;-64
2021/06/22 08:31:44;;;;;;;12.77;12.17;;;26.00;97.20;;;;;;3508614;40;20760;-65
2021/06/22 08:34:11;;;;;;;13.60;13.00;;;25.90;97.00;;;;;;3506832;40;20501;-65
2021/06/22 08:36:39;;;;;;;12.10;11.60;;;26.00;96.90;;;;;;3504275;40;20859;-64
2021/06/22 08:39:06;;;;;;;12.60;12.03;;;26.00;96.80;;;;;;3508876;40;20659;-64
2021/06/22 08:41:35;;;;;;;12.30;11.80;;;26.00;96.70;;;;;;3508546;40;20512;-64
2021/06/22 08:44:04;;;;;;;12.67;12.07;;;26.00;96.60;;;;;;3508459;40;20583;-64
2021/06/22 08:46:34;;;;;;;13.10;12.50;;;26.00;96.60;;;;;;3508508;40;20845;-65
2021/06/22 08:49:02;;;;;;;12.90;12.40;;;26.00;96.50;;;;;;3502116;40;20591;-65
2021/06/22 08:51:31;;;;;;;12.40;11.83;;;26.00;96.40;;;;;;3500586;40;20490;-65
2021/06/22 08:53:59;;;;;;;13.03;12.43;;;26.00;96.40;;;;;;3510235;40;20850;-65
2021/06/22 08:56:27;;;;;;;13.00;12.40;;;26.00;96.30;;;;;;3513360;40;20629;-65
2021/06/22 08:58:54;;;;;;;12.13;11.53;;;26.00;96.30;;;;;;3511677;40;20512;-65
2021/06/22 09:01:21;;;;;;;10.63;10.30;;;26.00;96.20;;;;;;3509728;40;21274;-65
2021/06/22 09:03:49;;;;;;;12.77;12.07;;;26.00;96.20;;;;;;3492622;40;20525;-65
2021/06/22 09:06:16;;;;;;;12.33;11.73;;;26.00;96.20;;;;;;3512338;40;20757;-65
2021/06/22 09:08:51;;;;;;;12.37;11.87;;;26.00;96.20;;;;;;3508217;40;20706;-65
2021/06/22 09:11:20;;;;;;;12.20;11.70;;;26.00;96.20;;;;;;3514006;40;20550;-65
2021/06/22 09:13:57;;;;;;;12.90;12.30;;;26.00;96.20;;;;;;3512586;40;20615;-64
2021/06/22 09:16:24;;;;;;;12.20;11.70;;;26.10;96.30;;;;;;3522052;40;20511;-64
2021/06/22 09:18:53;;;;;;;12.97;12.37;;;26.00;96.20;;;;;;3526839;40;20491;-64
2021/06/22 09:21:23;;;;;;;13.60;12.90;;;26.10;96.30;;;;;;3519760;40;20743;-65
2021/06/22 09:23:53;;;;;;;12.23;11.73;;;26.10;96.40;;;;;;3515248;40;20838;-65
2021/06/22 09:26:22;;;;;;;13.77;13.17;;;26.10;96.40;;;;;;3519428;40;20708;-65
2021/06/22 09:28:50;;;;;;;12.93;12.37;;;26.10;96.40;;;;;;3519968;40;20684;-65
2021/06/22 09:31:18;;;;;;;13.23;12.63;;;26.10;96.40;;;;;;3516233;40;20702;-65
2021/06/22 09:33:50;;;;;;;11.70;11.30;;;26.10;96.50;;;;;;3518484;40;20538;-65
2021/06/22 09:36:24;;;;;;;14.20;13.50;;;26.10;96.60;;;;;;3524308;40;20547;-65
2021/06/22 09:38:53;;;;;;;13.97;13.33;;;26.10;96.60;;;;;;3516079;40;20864;-65
2021/06/22 09:41:22;;;;;;;14.10;13.40;;;26.10;96.60;;;;;;3517729;40;20781;-65
2021/06/22 09:43:52;;;;;;;14.83;14.03;;;26.10;96.70;;;;;;3525197;40;20512;-66
2021/06/22 09:46:37;;;;;;;14.90;14.33;;;26.10;96.70;;;;;;3519331;40;21138;-67
2021/06/22 09:49:06;;;;;;;15.57;14.87;;;26.10;96.70;;;;;;3522821;40;20692;-67
2021/06/22 09:51:40;;;;;;;14.03;13.40;;;26.10;96.70;;;;;;3520845;40;20500;-65
2021/06/22 09:54:19;;;;;;;13.13;12.63;;;26.10;96.80;;;;;;3518553;40;20652;-66
2021/06/22 09:57:01;;;;;;;14.07;13.50;;;26.10;96.80;;;;;;3533448;40;21081;-66
2021/06/22 09:59:30;;;;;;;13.30;12.77;;;26.10;96.80;;;;;;3533709;40;20822;-66
2021/06/22 10:02:09;;;;;;;14.63;14.03;;;26.10;96.80;;;;;;3531856;40;20607;-66
2021/06/22 10:04:36;;;;;;;13.97;13.30;;;26.10;96.80;;;;;;3534358;40;20509;-67
2021/06/22 10:07:10;;;;;;;14.10;13.50;;;26.10;96.70;;;;;;3533472;40;20768;-68
2021/06/22 10:09:37;;;;;;;13.43;12.93;;;26.10;96.70;;;;;;3511393;40;20869;-68
2021/06/22 10:12:08;;;;;;;13.73;12.97;;;26.10;96.70;;;;;;3507186;40;21356;-68
2021/06/22 10:14:38;;;;;;;14.13;13.53;;;26.20;96.70;;;;;;3517482;40;20506;-69
2021/06/22 10:17:09;;;;;;;14.57;13.70;;;26.20;96.70;;;;;;3518840;40;20584;-65
2021/06/22 10:19:37;;;;;;;13.87;13.13;;;26.10;96.60;;;;;;3520767;40;20742;-63
2021/06/22 10:22:07;;;;;;;12.97;12.47;;;26.10;96.70;;;;;;3522227;40;20739;-64
2021/06/22 10:24:38;;;;;;;13.97;13.27;;;26.10;96.70;;;;;;3501893;40;20698;-65
2021/06/22 10:27:06;;;;;;;14.10;13.40;;;26.10;96.70;;;;;;3522424;40;20784;-65
2021/06/22 10:29:33;;;;;;;13.30;12.60;;;26.10;96.60;;;;;;3517912;40;20496;-64
2021/06/22 10:32:01;;;;;;;13.57;12.97;;;26.10;96.60;;;;;;3514200;40;20734;-65
2021/06/22 10:34:28;;;;;;;13.93;13.23;;;26.10;96.50;;;;;;3522604;40;20505;-65
2021/06/22 10:37:00;;;;;;;12.77;12.10;;;26.10;96.50;;;;;;3519307;40;20773;-65
2021/06/22 10:39:35;;;;;;;13.37;12.67;;;26.10;96.50;;;;;;3518834;40;20667;-65
2021/06/22 10:42:09;;;;;;;13.73;13.10;;;26.10;96.40;;;;;;3517328;40;21173;-64
2021/06/22 10:44:45;;;;;;;13.90;13.20;;;26.10;96.40;;;;;;3524365;40;20498;-66
2021/06/22 10:47:30;;;;;;;14.70;13.90;;;26.10;96.30;;;;;;3521200;40;20477;-65
2021/06/22 10:50:08;;;;;;;12.27;11.77;;;26.10;96.40;;;;;;3522021;40;20601;-66
2021/06/22 10:53:03;;;;;;;11.83;11.33;;;26.10;95.90;;;;;;3520904;40;20758;-66
2021/06/22 10:56:16;;;;;;;12.37;11.53;;;26.00;95.30;;;;;;3508700;40;20710;-66
2021/06/22 10:59:22;;;;;;;12.03;11.33;;;25.90;95.50;;;;;;3509317;40;20505;-66
2021/06/22 11:02:03;;;;;;;11.50;11.00;;;25.80;95.70;;;;;;3506170;40;20502;-66
2021/06/22 11:04:30;;;;;;;12.70;12.10;;;25.80;95.70;;;;;;3505459;40;21012;-66
2021/06/22 11:07:02;;;;;;;12.73;12.23;;;25.80;95.80;;;;;;3510168;40;20518;-66
2021/06/22 11:09:31;;;;;;;12.87;12.27;;;25.80;95.90;;;;;;3520500;40;20496;-66
2021/06/22 11:12:25;;;;;;;12.03;11.53;;;25.80;95.80;;;;;;3518543;40;20907;-67
2021/06/22 11:15:06;;;;;;;12.03;11.40;;;25.80;95.60;;;;;;3519607;40;20847;-66
2021/06/22 11:17:56;;;;;;;12.57;11.97;;;25.80;95.80;;;;;;3518123;40;20542;-66
2021/06/22 11:20:23;;;;;;;12.00;11.50;;;25.80;96.30;;;;;;3513413;40;20731;-66
2021/06/22 11:23:09;;;;;;;11.80;11.30;;;25.80;96.40;;;;;;3524223;40;20887;-66
2021/06/22 11:25:47;;;;;;;13.47;12.63;;;25.70;96.90;;;;;;3511801;40;20509;-66
2021/06/22 11:28:17;;;;;;;12.20;11.70;;;25.80;96.80;;;;;;3519677;40;21134;-66
2021/06/22 11:30:49;;;;;;;11.90;11.40;;;25.80;96.90;;;;;;3523121;40;20993;-66
2021/06/22 11:33:44;;;;;;;12.43;11.83;;;25.70;96.70;;;;;;3525919;40;20489;-67
2021/06/22 11:36:31;;;;;;;13.20;12.50;;;25.70;97.00;;;;;;3520599;40;20496;-67
2021/06/22 11:39:19;;;;;;;12.53;11.73;;;25.70;97.20;;;;;;3516428;40;20518;-67
2021/06/22 11:42:23;;;;;;;13.40;12.90;;;25.70;97.10;;;;;;3521533;40;20523;-68
2021/06/22 11:44:56;;;;;;;12.67;12.07;;;25.60;97.20;;;;;;3519184;40;20493;-67
2021/06/22 11:47:57;;;;;;;12.70;11.90;;;25.70;97.30;;;;;;3516902;40;20690;-68
2021/06/22 11:50:48;;;;;;;13.13;12.53;;;25.70;97.40;;;;;;3487389;40;20495;-67
2021/06/22 11:53:16;;;;;;;12.50;11.90;;;25.60;97.50;;;;;;3519875;40;20505;-68
2021/06/22 11:55:48;;;;;;;12.57;11.90;;;25.50;97.70;;;;;;3518452;40;20691;-67
2021/06/22 11:58:20;;;;;;;12.80;12.30;;;25.60;97.70;;;;;;3519913;40;20949;-67
2021/06/22 12:00:49;;;;;;;13.00;12.30;;;25.60;97.70;;;;;;3517853;40;20489;-67
2021/06/22 12:03:19;;;;;;;14.00;13.40;;;25.60;97.50;;;;;;3520122;40;20553;-67
2021/06/22 12:05:46;;;;;;;13.30;12.60;;;25.70;97.30;;;;;;3522536;40;21353;-67
2021/06/22 12:08:13;;;;;;;13.47;12.77;;;25.80;97.20;;;;;;3506456;40;20784;-67
2021/06/22 12:10:49;;;;;;;13.77;13.17;;;25.80;97.00;;;;;;3518113;40;20571;-67
2021/06/22 12:13:32;;;;;;;13.50;12.80;;;25.90;96.90;;;;;;3521101;40;20541;-67
2021/06/22 12:16:17;;;;;;;12.67;12.17;;;25.90;96.80;;;;;;3519760;40;20840;-67
2021/06/22 12:18:44;;;;;;;14.67;13.90;;;25.90;96.70;;;;;;3520585;40;20896;-67
2021/06/22 12:21:11;;;;;;;13.40;12.80;;;25.90;96.60;;;;;;3521403;40;21116;-67
2021/06/22 12:23:40;;;;;;;14.23;13.63;;;26.00;96.60;;;;;;3522345;40;20589;-67
2021/06/22 12:26:08;;;;;;;13.90;13.30;;;26.00;96.60;;;;;;3520661;40;20939;-68
2021/06/22 12:28:36;;;;;;;13.20;12.50;;;26.00;96.50;;;;;;3518604;40;21270;-67
2021/06/22 12:31:06;;;;;;;12.70;12.10;;;26.00;96.70;;;;;;3519368;40;20533;-67
2021/06/22 12:33:38;;;;;;;12.90;12.30;;;26.00;96.40;;;;;;3525382;40;20504;-67
2021/06/22 12:36:08;;;;;;;12.37;11.80;;;26.00;96.30;;;;;;3521333;40;20561;-66
2021/06/22 12:38:35;;;;;;;13.70;13.00;;;26.00;96.30;;;;;;3520528;40;20497;-67
2021/06/22 12:41:04;;;;;;;13.20;12.67;;;26.00;96.30;;;;;;3520918;40;20508;-66
2021/06/22 12:43:49;;;;;;;13.90;13.20;;;26.10;96.30;;;;;;3521584;40;20770;-66
2021/06/22 12:46:19;;;;;;;13.63;13.03;;;26.10;96.30;;;;;;3522199;40;20490;-65
2021/06/22 12:48:48;;;;;;;13.50;12.80;;;26.00;96.20;;;;;;3521531;40;20815;-65